Time;durP1;ratioP1;P1;durP2;ratioP2;P2;SDS_P1;SDS_P2;PMS_P1;PMS_P2;Temp;Humidity;BMP_temperature;BMP_pressure;BME280_temperature;BME280_humidity;BME280_pressure;Samples;Min_cycle;Max_cycle;Signal;HPM_P1;HPM_P2
2022/03/10 00:01:46;;;;;;;;;;;;;;;;;;2214267;67;1136;-72
2022/03/10 00:04:20;;;;;;;;;;;;;;;;;;2213966;59;1760;-72
2022/03/10 00:06:53;;;;;;;;;;;;;;;;;;2213536;67;2010;-72
2022/03/10 00:09:26;;;;;;;;;;;;;;;;;;2213834;59;1153;-72
2022/03/10 00:12:02;;;;;;;;;;;;;;;;;;2215454;59;1101;-72
2022/03/10 00:14:35;;;;;;;;;;;;;;;;;;2214764;67;1150;-73
2022/03/10 00:17:09;;;;;;;;;;;;;;;;;;2215200;67;1132;-72
2022/03/10 00:19:43;;;;;;;;;;;;;;;;;;2214570;59;1266;-72
2022/03/10 00:22:16;;;;;;;;;;;;;;;;;;2213053;67;1160;-72
2022/03/10 00:24:49;;;;;;;;;;;;;;;;;;2213343;59;1696;-72
2022/03/10 00:27:25;;;;;;;;;;;;;;;;;;2212070;67;1932;-72
2022/03/10 00:29:58;;;;;;;;;;;;;;;;;;2214705;59;1260;-72
2022/03/10 00:32:31;;;;;;;;;;;;;;;;;;2212207;67;1166;-72
2022/03/10 00:35:05;;;;;;;;;;;;;;;;;;2213224;59;1187;-72
2022/03/10 00:37:38;;;;;;;;;;;;;;;;;;2213580;67;1096;-72
2022/03/10 00:40:12;;;;;;;;;;;;;;;;;;2208555;67;1384;-72
2022/03/10 00:42:48;;;;;;;;;;;;;;;;;;2212962;67;1227;-72
2022/03/10 00:45:22;;;;;;;;;;;;;;;;;;2212683;59;1768;-72
2022/03/10 00:47:55;;;;;;;;;;;;;;;;;;2212812;67;1301;-73
2022/03/10 00:50:29;;;;;;;;;;;;;;;;;;2212213;67;1966;-72
2022/03/10 00:53:02;;;;;;;;;;;;;;;;;;2211720;67;1238;-72
2022/03/10 00:55:35;;;;;;;;;;;;;;;;;;2212098;59;2259;-72
2022/03/10 00:58:11;;;;;;;;;;;;;;;;;;2212615;67;1209;-72
2022/03/10 01:00:44;;;;;;;;;;;;;;;;;;2211622;67;1112;-72
2022/03/10 01:03:17;;;;;;;;;;;;;;;;;;2212648;59;1187;-72
2022/03/10 01:05:50;;;;;;;;;;;;;;;;;;2210726;59;1939;-72
2022/03/10 01:08:23;;;;;;;;;;;;;;;;;;2210850;67;1169;-72
2022/03/10 01:10:56;;;;;;;;;;;;;;;;;;2212577;67;1104;-73
2022/03/10 01:13:32;;;;;;;;;;;;;;;;;;2208791;59;1411;-72
2022/03/10 01:16:06;;;;;;;;;;;;;;;;;;2212299;59;1171;-73
2022/03/10 01:18:39;;;;;;;;;;;;;;;;;;2212310;59;1191;-72
2022/03/10 01:21:12;;;;;;;;;;;;;;;;;;2210875;67;1252;-72
2022/03/10 01:23:45;;;;;;;;;;;;;;;;;;2211187;59;1244;-73
2022/03/10 01:26:18;;;;;;;;;;;;;;;;;;2212893;59;2173;-72
2022/03/10 01:28:54;;;;;;;;;;;;;;;;;;2212987;67;1317;-72
2022/03/10 01:31:27;;;;;;;;;;;;;;;;;;2212800;67;1081;-72
2022/03/10 01:34:00;;;;;;;;;;;;;;;;;;2211949;59;1135;-72
2022/03/10 01:36:33;;;;;;;;;;;;;;;;;;2211387;67;1220;-72
2022/03/10 01:39:06;;;;;;;;;;;;;;;;;;2212412;67;1251;-72
2022/03/10 01:41:40;;;;;;;;;;;;;;;;;;2212074;59;1215;-72
2022/03/10 01:44:16;;;;;;;;;;;;;;;;;;2211203;59;1718;-72
2022/03/10 01:46:49;;;;;;;;;;;;;;;;;;2214045;67;1925;-72
2022/03/10 01:49:22;;;;;;;;;;;;;;;;;;2212291;67;1280;-72
2022/03/10 01:51:55;;;;;;;;;;;;;;;;;;2212603;67;1244;-72
2022/03/10 01:54:29;;;;;;;;;;;;;;;;;;2211554;59;2131;-72
2022/03/10 01:57:03;;;;;;;;;;;;;;;;;;2212447;67;1202;-72
2022/03/10 01:59:40;;;;;;;;;;;;;;;;;;2212170;59;1078;-71
2022/03/10 02:02:13;;;;;;;;;;;;;;;;;;2211373;67;1216;-72
2022/03/10 02:04:46;;;;;;;;;;;;;;;;;;2212592;59;1764;-72
2022/03/10 02:10:20;;;;;;;;;;;;;;;;;;2208438;67;1477;-72
2022/03/10 02:12:54;;;;;;;;;;;;;;;;;;2211832;67;1315;-72
2022/03/10 02:18:20;;;;;;;;;;;;;;;;;;2211238;67;1303;-72
2022/03/10 02:20:53;;;;;;;;;;;;;;;;;;2213208;67;1267;-72
2022/03/10 02:23:30;;;;;;;;;;;;;;;;;;2211605;67;1332;-72
2022/03/10 02:26:04;;;;;;;;;;;;;;;;;;2210481;59;1928;-72
2022/03/10 02:28:37;;;;;;;;;;;;;;;;;;2212544;67;1244;-72
2022/03/10 02:31:10;;;;;;;;;;;;;;;;;;2212327;67;1141;-72
2022/03/10 02:33:44;;;;;;;;;;;;;;;;;;2211472;59;1188;-72
2022/03/10 02:36:17;;;;;;;;;;;;;;;;;;2211799;67;1230;-72
2022/03/10 02:38:53;;;;;;;;;;;;;;;;;;2213065;67;1227;-72
2022/03/10 02:41:27;;;;;;;;;;;;;;;;;;2212387;67;1100;-72
2022/03/10 02:44:00;;;;;;;;;;;;;;;;;;2212206;59;1665;-72
2022/03/10 02:46:33;;;;;;;;;;;;;;;;;;2212741;67;1929;-72
2022/03/10 02:49:06;;;;;;;;;;;;;;;;;;2213110;67;1252;-72
2022/03/10 02:51:39;;;;;;;;;;;;;;;;;;2211972;59;2014;-72
2022/03/10 02:54:15;;;;;;;;;;;;;;;;;;2211334;59;2065;-72
2022/03/10 02:56:48;;;;;;;;;;;;;;;;;;2212674;67;1144;-72
2022/03/10 02:59:22;;;;;;;;;;;;;;;;;;2212485;67;1133;-72
2022/03/10 03:01:55;;;;;;;;;;;;;;;;;;2211873;67;1287;-72
2022/03/10 03:04:29;;;;;;;;;;;;;;;;;;2210200;59;2077;-72
2022/03/10 03:07:03;;;;;;;;;;;;;;;;;;2213464;59;1932;-72
2022/03/10 03:09:39;;;;;;;;;;;;;;;;;;2211543;67;1108;-72
2022/03/10 03:12:12;;;;;;;;;;;;;;;;;;2211520;67;1246;-72
2022/03/10 03:14:45;;;;;;;;;;;;;;;;;;2212684;67;1276;-72
2022/03/10 03:17:18;;;;;;;;;;;;;;;;;;2211026;59;1173;-72
2022/03/10 03:19:51;;;;;;;;;;;;;;;;;;2212330;59;1347;-72
2022/03/10 03:22:25;;;;;;;;;;;;;;;;;;2211248;59;1303;-73
2022/03/10 03:25:01;;;;;;;;;;;;;;;;;;2211465;59;1851;-72
2022/03/10 03:27:34;;;;;;;;;;;;;;;;;;2209134;59;1984;-72
2022/03/10 03:30:07;;;;;;;;;;;;;;;;;;2212259;67;1092;-72
2022/03/10 03:32:41;;;;;;;;;;;;;;;;;;2208980;67;1993;-72
2022/03/10 03:35:14;;;;;;;;;;;;;;;;;;2212413;67;1245;-72
2022/03/10 03:37:47;;;;;;;;;;;;;;;;;;2211383;67;1239;-72
2022/03/10 03:40:23;;;;;;;;;;;;;;;;;;2211581;67;1231;-72
2022/03/10 03:42:56;;;;;;;;;;;;;;;;;;2211851;67;1168;-72
2022/03/10 03:45:29;;;;;;;;;;;;;;;;;;2212002;59;1881;-72
2022/03/10 03:48:02;;;;;;;;;;;;;;;;;;2213503;59;1986;-72
2022/03/10 03:50:36;;;;;;;;;;;;;;;;;;2212243;59;1992;-72
2022/03/10 03:53:09;;;;;;;;;;;;;;;;;;2212192;67;1152;-72
2022/03/10 03:55:45;;;;;;;;;;;;;;;;;;2212258;59;2370;-72
2022/03/10 03:58:19;;;;;;;;;;;;;;;;;;2213244;60;1176;-72
2022/03/10 04:00:52;;;;;;;;;;;;;;;;;;2212255;59;1257;-72
2022/03/10 04:03:25;;;;;;;;;;;;;;;;;;2213004;59;1317;-72
2022/03/10 04:05:58;;;;;;;;;;;;;;;;;;2211641;59;1829;-72
2022/03/10 04:08:31;;;;;;;;;;;;;;;;;;2212024;67;1928;-72
2022/03/10 04:11:07;;;;;;;;;;;;;;;;;;2214105;67;1274;-72
2022/03/10 04:13:41;;;;;;;;;;;;;;;;;;2211152;67;1222;-72
2022/03/10 04:16:14;;;;;;;;;;;;;;;;;;2212515;67;1364;-72
2022/03/10 04:18:47;;;;;;;;;;;;;;;;;;2211899;59;1272;-72
2022/03/10 04:21:20;;;;;;;;;;;;;;;;;;2211639;67;1241;-72
2022/03/10 04:23:53;;;;;;;;;;;;;;;;;;2212183;67;1144;-72
2022/03/10 04:26:29;;;;;;;;;;;;;;;;;;2212408;59;1717;-72
2022/03/10 04:29:02;;;;;;;;;;;;;;;;;;2211972;67;1967;-72
2022/03/10 04:31:35;;;;;;;;;;;;;;;;;;2213141;59;1271;-72
2022/03/10 04:34:08;;;;;;;;;;;;;;;;;;2213338;67;1265;-72
2022/03/10 04:36:42;;;;;;;;;;;;;;;;;;2211362;59;1139;-71
2022/03/10 04:39:15;;;;;;;;;;;;;;;;;;2212816;67;1100;-72
2022/03/10 04:41:51;;;;;;;;;;;;;;;;;;2212386;67;1171;-72
2022/03/10 04:44:24;;;;;;;;;;;;;;;;;;2211203;59;1891;-71
2022/03/10 04:46:57;;;;;;;;;;;;;;;;;;2211579;67;1931;-72
2022/03/10 04:49:30;;;;;;;;;;;;;;;;;;2211393;59;1947;-71
2022/03/10 04:52:03;;;;;;;;;;;;;;;;;;2212222;59;1251;-72
2022/03/10 04:54:36;;;;;;;;;;;;;;;;;;2212632;59;1982;-72
2022/03/10 04:57:12;;;;;;;;;;;;;;;;;;2211992;67;1197;-71
2022/03/10 04:59:46;;;;;;;;;;;;;;;;;;2212635;67;1088;-72
2022/03/10 05:02:19;;;;;;;;;;;;;;;;;;2211814;59;1210;-72
2022/03/10 05:04:52;;;;;;;;;;;;;;;;;;2211227;59;2212;-72
2022/03/10 05:07:25;;;;;;;;;;;;;;;;;;2211465;67;1928;-72
2022/03/10 05:09:58;;;;;;;;;;;;;;;;;;2211148;67;1232;-71
2022/03/10 05:12:34;;;;;;;;;;;;;;;;;;2211437;59;1101;-72
2022/03/10 05:15:08;;;;;;;;;;;;;;;;;;2212411;59;1222;-72
2022/03/10 05:17:41;;;;;;;;;;;;;;;;;;2212452;67;1123;-72
2022/03/10 05:20:14;;;;;;;;;;;;;;;;;;2212343;67;1272;-72
2022/03/10 05:22:49;;;;;;;;;;;;;;;;;;2210967;59;1247;-72
2022/03/10 05:25:36;;;;;;;;;;;;;;;;;;2212463;59;1823;-72
2022/03/10 05:28:14;;;;;;;;;;;;;;;;;;2209795;59;1908;-71
2022/03/10 05:30:48;;;;;;;;;;;;;;;;;;2211321;67;1265;-72
2022/03/10 05:33:21;;;;;;;;;;;;;;;;;;2212884;59;1084;-72
2022/03/10 05:35:54;;;;;;;;;;;;;;;;;;2208566;67;1311;-72
2022/03/10 05:38:27;;;;;;;;;;;;;;;;;;2212112;67;1146;-72
2022/03/10 05:41:03;;;;;;;;;;;;;;;;;;2212398;67;1333;-72
2022/03/10 05:43:39;;;;;;;;;;;;;;;;;;2212606;59;1241;-72
2022/03/10 05:46:12;;;;;;;;;;;;;;;;;;2212358;59;1959;-72
2022/03/10 05:48:46;;;;;;;;;;;;;;;;;;2213102;67;2008;-72
2022/03/10 05:51:19;;;;;;;;;;;;;;;;;;2211680;59;1794;-72
2022/03/10 05:53:52;;;;;;;;;;;;;;;;;;2212040;59;1996;-72
2022/03/10 05:56:25;;;;;;;;;;;;;;;;;;2211285;67;1128;-71
2022/03/10 05:59:01;;;;;;;;;;;;;;;;;;2211911;59;1199;-72
2022/03/10 06:01:34;;;;;;;;;;;;;;;;;;2212409;59;1182;-71
2022/03/10 06:04:08;;;;;;;;;;;;;;;;;;2211106;59;1821;-72
2022/03/10 06:06:43;;;;;;;;;;;;;;;;;;2213148;67;1181;-72
2022/03/10 06:09:16;;;;;;;;;;;;;;;;;;2212601;59;1923;-72
2022/03/10 06:11:49;;;;;;;;;;;;;;;;;;2212995;59;1122;-72
2022/03/10 06:14:25;;;;;;;;;;;;;;;;;;2213173;59;1250;-72
2022/03/10 06:16:58;;;;;;;;;;;;;;;;;;2211449;59;1275;-72
2022/03/10 06:19:31;;;;;;;;;;;;;;;;;;2211644;67;1144;-72
2022/03/10 06:22:04;;;;;;;;;;;;;;;;;;2214257;59;1207;-72
2022/03/10 06:24:38;;;;;;;;;;;;;;;;;;2211214;59;1741;-72
2022/03/10 06:27:11;;;;;;;;;;;;;;;;;;2212055;59;1232;-72
2022/03/10 06:29:47;;;;;;;;;;;;;;;;;;2211735;67;1935;-72
2022/03/10 06:32:21;;;;;;;;;;;;;;;;;;2212331;67;1105;-72
2022/03/10 06:34:56;;;;;;;;;;;;;;;;;;2212252;67;1231;-72
2022/03/10 06:37:29;;;;;;;;;;;;;;;;;;2211736;59;2172;-72
2022/03/10 06:40:02;;;;;;;;;;;;;;;;;;2210978;59;1295;-71
2022/03/10 06:42:36;;;;;;;;;;;;;;;;;;2213583;67;1086;-72
2022/03/10 06:45:12;;;;;;;;;;;;;;;;;;2212642;59;1976;-72
2022/03/10 06:47:45;;;;;;;;;;;;;;;;;;2212747;67;1991;-72
2022/03/10 06:50:19;;;;;;;;;;;;;;;;;;2212463;59;1889;-72
2022/03/10 06:52:56;;;;;;;;;;;;;;;;;;2212797;67;1110;-72
2022/03/10 06:55:29;;;;;;;;;;;;;;;;;;2212271;59;2192;-72
2022/03/10 06:58:02;;;;;;;;;;;;;;;;;;2211841;60;1128;-72
2022/03/10 07:00:38;;;;;;;;;;;;;;;;;;2211230;67;1188;-72
2022/03/10 07:03:11;;;;;;;;;;;;;;;;;;2211542;67;1201;-72
2022/03/10 07:05:44;;;;;;;;;;;;;;;;;;2212167;59;1889;-73
2022/03/10 07:08:18;;;;;;;;;;;;;;;;;;2208207;67;1954;-73
2022/03/10 07:10:51;;;;;;;;;;;;;;;;;;2211096;67;1258;-73
2022/03/10 07:13:24;;;;;;;;;;;;;;;;;;2212413;67;1234;-72
2022/03/10 07:16:00;;;;;;;;;;;;;;;;;;2211670;59;1311;-73
2022/03/10 07:18:33;;;;;;;;;;;;;;;;;;2211512;67;1098;-72
2022/03/10 07:21:06;;;;;;;;;;;;;;;;;;2210530;59;1282;-72
2022/03/10 07:23:40;;;;;;;;;;;;;;;;;;2211887;67;1210;-72
2022/03/10 07:26:13;;;;;;;;;;;;;;;;;;2211235;59;2101;-73
2022/03/10 07:28:46;;;;;;;;;;;;;;;;;;2212091;59;1963;-72
2022/03/10 07:31:22;;;;;;;;;;;;;;;;;;2211545;67;1124;-70
2022/03/10 07:33:55;;;;;;;;;;;;;;;;;;2211375;59;1139;-70
2022/03/10 07:36:28;;;;;;;;;;;;;;;;;;2211994;67;1203;-70
2022/03/10 07:39:01;;;;;;;;;;;;;;;;;;2211626;59;1261;-69
2022/03/10 07:41:35;;;;;;;;;;;;;;;;;;2211865;59;1728;-69
2022/03/10 07:44:08;;;;;;;;;;;;;;;;;;2208979;67;1393;-70
2022/03/10 07:46:44;;;;;;;;;;;;;;;;;;2211454;67;1340;-69
2022/03/10 07:49:17;;;;;;;;;;;;;;;;;;2211828;67;1930;-69
2022/03/10 07:51:50;;;;;;;;;;;;;;;;;;2211417;59;1816;-69
2022/03/10 07:54:25;;;;;;;;;;;;;;;;;;2211528;59;2202;-70
2022/03/10 07:56:58;;;;;;;;;;;;;;;;;;2212739;67;1244;-69
2022/03/10 07:59:31;;;;;;;;;;;;;;;;;;2213678;59;1069;-70
2022/03/10 08:02:07;;;;;;;;;;;;;;;;;;2212142;59;1148;-69
2022/03/10 08:04:41;;;;;;;;;;;;;;;;;;2212644;67;1277;-70
2022/03/10 08:07:14;;;;;;;;;;;;;;;;;;2211914;67;1213;-70
2022/03/10 08:09:47;;;;;;;;;;;;;;;;;;2211700;59;1927;-70
2022/03/10 08:12:20;;;;;;;;;;;;;;;;;;2211833;67;1102;-70
2022/03/10 08:14:53;;;;;;;;;;;;;;;;;;2211525;59;1755;-69
2022/03/10 08:17:29;;;;;;;;;;;;;;;;;;2212573;67;1129;-70
2022/03/10 08:20:02;;;;;;;;;;;;;;;;;;2212570;67;1129;-70
2022/03/10 08:22:35;;;;;;;;;;;;;;;;;;2212856;59;1193;-70
2022/03/10 08:25:09;;;;;;;;;;;;;;;;;;2211598;59;1872;-70
2022/03/10 08:27:43;;;;;;;;;;;;;;;;;;2212111;67;1172;-70
2022/03/10 08:30:16;;;;;;;;;;;;;;;;;;2212613;67;1935;-70
2022/03/10 08:32:52;;;;;;;;;;;;;;;;;;2212691;67;1193;-70
2022/03/10 08:35:25;;;;;;;;;;;;;;;;;;2208006;59;1928;-70
2022/03/10 08:37:58;;;;;;;;;;;;;;;;;;2212104;59;1229;-71
2022/03/10 08:40:31;;;;;;;;;;;;;;;;;;2212973;67;1148;-70
2022/03/10 08:43:05;;;;;;;;;;;;;;;;;;2212812;67;1222;-70
2022/03/10 08:45:38;;;;;;;;;;;;;;;;;;2213437;67;1179;-70
2022/03/10 08:48:14;;;;;;;;;;;;;;;;;;2212736;59;1943;-71
2022/03/10 08:50:47;;;;;;;;;;;;;;;;;;2212177;67;1136;-71
2022/03/10 08:53:20;;;;;;;;;;;;;;;;;;2213059;59;2057;-70
2022/03/10 08:55:53;;;;;;;;;;;;;;;;;;2207766;59;2083;-70
2022/03/10 08:58:27;;;;;;;;;;;;;;;;;;2211710;67;1294;-70
2022/03/10 09:01:00;;;;;;;;;;;;;;;;;;2211556;67;1041;-71
2022/03/10 09:03:36;;;;;;;;;;;;;;;;;;2211503;67;1172;-70
2022/03/10 09:06:12;;;;;;;;;;;;;;;;;;2211362;59;1179;-71
2022/03/10 09:08:45;;;;;;;;;;;;;;;;;;2212343;59;1984;-70
2022/03/10 09:11:18;;;;;;;;;;;;;;;;;;2211457;59;1121;-70
2022/03/10 09:13:51;;;;;;;;;;;;;;;;;;2212134;67;1190;-71
2022/03/10 09:16:24;;;;;;;;;;;;;;;;;;2210274;59;1655;-71
2022/03/10 09:19:01;;;;;;;;;;;;;;;;;;2211947;59;1127;-71
2022/03/10 09:21:34;;;;;;;;;;;;;;;;;;2211882;67;1102;-71
2022/03/10 09:24:08;;;;;;;;;;;;;;;;;;2212309;59;2122;-70
2022/03/10 09:26:41;;;;;;;;;;;;;;;;;;2211513;67;1247;-71
2022/03/10 09:29:15;;;;;;;;;;;;;;;;;;2212640;67;1929;-71
2022/03/10 09:31:48;;;;;;;;;;;;;;;;;;2212334;67;1250;-71
2022/03/10 09:34:24;;;;;;;;;;;;;;;;;;2212038;59;1834;-71
2022/03/10 09:36:57;;;;;;;;;;;;;;;;;;2213492;59;1274;-71
2022/03/10 09:39:31;;;;;;;;;;;;;;;;;;2213606;67;1243;-71
2022/03/10 09:42:06;;;;;;;;;;;;;;;;;;2212524;59;1111;-70
2022/03/10 09:44:43;;;;;;;;;;;;;;;;;;2212114;59;1195;-71
2022/03/10 09:47:16;;;;;;;;;;;;;;;;;;2212178;67;1199;-71
2022/03/10 09:49:52;;;;;;;;;;;;;;;;;;2212119;67;1925;-71
2022/03/10 09:52:25;;;;;;;;;;;;;;;;;;2211850;67;1215;-71
2022/03/10 09:54:58;;;;;;;;;;;;;;;;;;2210904;59;2105;-71
2022/03/10 09:57:33;;;;;;;;;;;;;;;;;;2213168;67;1102;-71
2022/03/10 10:00:07;;;;;;;;;;;;;;;;;;2207647;67;1903;-71
2022/03/10 10:02:40;;;;;;;;;;;;;;;;;;2212692;59;1160;-71
2022/03/10 10:05:29;;;;;;;;;;;;;;;;;;2212484;59;1199;-71
2022/03/10 10:08:03;;;;;;;;;;;;;;;;;;2211184;59;1098;-70
2022/03/10 10:10:37;;;;;;;;;;;;;;;;;;2212779;67;1940;-71
2022/03/10 10:13:11;;;;;;;;;;;;;;;;;;2211319;59;1552;-71
2022/03/10 10:15:46;;;;;;;;;;;;;;;;;;2212219;59;1789;-71
2022/03/10 10:18:20;;;;;;;;;;;;;;;;;;2212462;67;1225;-71
2022/03/10 10:20:56;;;;;;;;;;;;;;;;;;2211769;67;1213;-71
2022/03/10 10:23:31;;;;;;;;;;;;;;;;;;2212561;67;2412;-71
2022/03/10 10:26:06;;;;;;;;;;;;;;;;;;2212652;59;1328;-71
2022/03/10 10:28:40;;;;;;;;;;;;;;;;;;2212649;59;1226;-71
2022/03/10 10:31:14;;;;;;;;;;;;;;;;;;2211871;67;1994;-71
2022/03/10 10:33:58;;;;;;;;;;;;;;;;;;2211704;59;1317;-71
2022/03/10 10:36:37;;;;;;;;;;;;;;;;;;2210880;67;1052;-71
2022/03/10 10:39:11;;;;;;;;;;;;;;;;;;2212152;60;1197;-70
2022/03/10 10:41:45;;;;;;;;;;;;;;;;;;2211432;59;1112;-71
2022/03/10 10:44:20;;;;;;;;;;;;;;;;;;2211845;67;1204;-71
2022/03/10 10:46:58;;;;;;;;;;;;;;;;;;2212369;59;1366;-71
2022/03/10 10:49:36;;;;;;;;;;;;;;;;;;2211570;67;1975;-71
2022/03/10 10:52:15;;;;;;;;;;;;;;;;;;2212211;67;1186;-71
2022/03/10 10:54:48;;;;;;;;;;;;;;;;;;2211845;59;2114;-71
2022/03/10 10:57:23;;;;;;;;;;;;;;;;;;2211863;67;1314;-71
2022/03/10 11:00:06;;;;;;;;;;;;;;;;;;2212263;67;1301;-69
2022/03/10 11:02:42;;;;;;;;;;;;;;;;;;2212615;67;1191;-69
2022/03/10 11:05:15;;;;;;;;;;;;;;;;;;2211784;53;3520;-71
2022/03/10 11:07:51;;;;;;;;;;;;;;;;;;2207852;67;1130;-71
2022/03/10 11:10:24;;;;;;;;;;;;;;;;;;2208937;59;2003;-71
2022/03/10 11:12:57;;;;;;;;;;;;;;;;;;2209115;59;1124;-71
2022/03/10 11:15:31;;;;;;;;;;;;;;;;;;2206882;67;1142;-71
2022/03/10 11:18:06;;;;;;;;;;;;;;;;;;2204995;59;1216;-71
2022/03/10 11:20:41;;;;;;;;;;;;;;;;;;2205950;59;1397;-71
2022/03/10 11:23:22;;;;;;;;;;;;;;;;;;2205484;59;2028;-71
2022/03/10 11:25:57;;;;;;;;;;;;;;;;;;2204434;59;1860;-71
2022/03/10 11:28:31;;;;;;;;;;;;;;;;;;2204792;67;1195;-71
2022/03/10 11:31:07;;;;;;;;;;;;;;;;;;2205736;67;1928;-71
2022/03/10 11:33:40;;;;;;;;;;;;;;;;;;2204996;59;1201;-70
2022/03/10 11:36:21;;;;;;;;;;;;;;;;;;2205492;59;1539;-71
2022/03/10 11:38:58;;;;;;;;;;;;;;;;;;2205351;59;1278;-71
2022/03/10 11:41:43;;;;;;;;;;;;;;;;;;2204796;59;1747;-71
2022/03/10 11:44:21;;;;;;;;;;;;;;;;;;2205309;59;1689;-71
2022/03/10 11:46:57;;;;;;;;;;;;;;;;;;2205168;67;1297;-71
2022/03/10 11:49:30;;;;;;;;;;;;;;;;;;2206045;67;1989;-71
2022/03/10 11:52:04;;;;;;;;;;;;;;;;;;2205422;67;1096;-71
2022/03/10 11:54:41;;;;;;;;;;;;;;;;;;2205445;59;1912;-70
2022/03/10 11:57:15;;;;;;;;;;;;;;;;;;2205558;67;1058;-71
2022/03/10 11:59:49;;;;;;;;;;;;;;;;;;2205414;59;1513;-70
2022/03/10 12:02:32;;;;;;;;;;;;;;;;;;2205150;59;1696;-71
2022/03/10 12:05:05;;;;;;;;;;;;;;;;;;2204839;59;1656;-71
2022/03/10 12:07:42;;;;;;;;;;;;;;;;;;2206973;67;1229;-70
2022/03/10 12:10:18;;;;;;;;;;;;;;;;;;2205802;67;1931;-70
2022/03/10 12:12:53;;;;;;;;;;;;;;;;;;2204502;67;1273;-70
2022/03/10 12:15:53;;;;;;;;;;;;;;;;;;2205812;59;1694;-70
2022/03/10 12:18:27;;;;;;;;;;;;;;;;;;2204885;59;1066;-70
2022/03/10 12:21:01;;;;;;;;;;;;;;;;;;2204907;59;1610;-70
2022/03/10 12:23:34;;;;;;;;;;;;;;;;;;2205908;59;2069;-69
2022/03/10 12:26:11;;;;;;;;;;;;;;;;;;2205633;59;1828;-70
2022/03/10 12:28:44;;;;;;;;;;;;;;;;;;2205940;59;1763;-70
2022/03/10 12:31:19;;;;;;;;;;;;;;;;;;2205298;67;1932;-70
2022/03/10 12:33:54;;;;;;;;;;;;;;;;;;2204723;59;1654;-70
2022/03/10 12:36:32;;;;;;;;;;;;;;;;;;2205695;59;1614;-70
2022/03/10 12:39:06;;;;;;;;;;;;;;;;;;2205880;59;1687;-70
2022/03/10 12:41:43;;;;;;;;;;;;;;;;;;2204578;59;1600;-69
2022/03/10 12:44:19;;;;;;;;;;;;;;;;;;2204943;59;1692;-70
2022/03/10 12:46:53;;;;;;;;;;;;;;;;;;2205703;59;1689;-70
2022/03/10 12:49:28;;;;;;;;;;;;;;;;;;2206184;59;1224;-70
2022/03/10 12:52:07;;;;;;;;;;;;;;;;;;2207745;67;1926;-70
2022/03/10 12:54:40;;;;;;;;;;;;;;;;;;2205496;59;1913;-70
2022/03/10 12:57:16;;;;;;;;;;;;;;;;;;2206472;67;1287;-70
2022/03/10 12:59:51;;;;;;;;;;;;;;;;;;2207809;59;1212;-70
2022/03/10 13:02:26;;;;;;;;;;;;;;;;;;2206733;59;1243;-70
2022/03/10 13:05:01;;;;;;;;;;;;;;;;;;2205356;59;1793;-69
2022/03/10 13:07:35;;;;;;;;;;;;;;;;;;2206612;67;1150;-70
2022/03/10 13:10:12;;;;;;;;;;;;;;;;;;2206497;59;1940;-70
2022/03/10 13:12:52;;;;;;;;;;;;;;;;;;2207329;59;1130;-70
2022/03/10 13:15:26;;;;;;;;;;;;;;;;;;2206928;59;1278;-70
2022/03/10 13:18:04;;;;;;;;;;;;;;;;;;2206419;67;1272;-70
2022/03/10 13:20:37;;;;;;;;;;;;;;;;;;2206145;67;1140;-70
2022/03/10 13:23:12;;;;;;;;;;;;;;;;;;2206866;59;1956;-70
2022/03/10 13:25:45;;;;;;;;;;;;;;;;;;2205889;59;1772;-70
2022/03/10 13:28:21;;;;;;;;;;;;;;;;;;2206369;67;1192;-69
2022/03/10 13:30:55;;;;;;;;;;;;;;;;;;2205380;67;1908;-70
2022/03/10 13:33:29;;;;;;;;;;;;;;;;;;2205083;59;1232;-70
2022/03/10 13:36:02;;;;;;;;;;;;;;;;;;2204798;67;1231;-70
2022/03/10 13:38:36;;;;;;;;;;;;;;;;;;2205783;67;1028;-70
2022/03/10 13:41:09;;;;;;;;;;;;;;;;;;2205039;67;1188;-70
2022/03/10 13:43:45;;;;;;;;;;;;;;;;;;2205588;59;1232;-70
2022/03/10 13:46:20;;;;;;;;;;;;;;;;;;2206173;59;1679;-70
2022/03/10 13:48:54;;;;;;;;;;;;;;;;;;2205842;67;1207;-70
2022/03/10 13:51:27;;;;;;;;;;;;;;;;;;2205383;59;1991;-70
2022/03/10 13:54:01;;;;;;;;;;;;;;;;;;2205958;59;2082;-71
2022/03/10 13:56:37;;;;;;;;;;;;;;;;;;2205542;59;1235;-70
2022/03/10 13:59:13;;;;;;;;;;;;;;;;;;2205871;59;1543;-70
2022/03/10 14:01:48;;;;;;;;;;;;;;;;;;2205428;67;1131;-70
2022/03/10 14:04:21;;;;;;;;;;;;;;;;;;2201507;59;2118;-70
2022/03/10 14:06:54;;;;;;;;;;;;;;;;;;2206435;67;1164;-70
2022/03/10 14:09:28;;;;;;;;;;;;;;;;;;2206769;59;1224;-70
2022/03/10 14:12:15;;;;;;;;;;;;;;;;;;2205346;59;1937;-70
2022/03/10 14:14:52;;;;;;;;;;;;;;;;;;2206063;67;1234;-69
2022/03/10 14:17:40;;;;;;;;;;;;;;;;;;2205252;59;1117;-70
2022/03/10 14:20:14;;;;;;;;;;;;;;;;;;2204689;67;1176;-70
2022/03/10 14:22:48;;;;;;;;;;;;;;;;;;2204959;67;1074;-70
2022/03/10 14:25:24;;;;;;;;;;;;;;;;;;2205312;59;2210;-70
2022/03/10 14:27:57;;;;;;;;;;;;;;;;;;2205738;59;1190;-70
2022/03/10 14:30:33;;;;;;;;;;;;;;;;;;2201931;67;1945;-70
2022/03/10 14:33:06;;;;;;;;;;;;;;;;;;2205516;59;1677;-70
2022/03/10 14:35:40;;;;;;;;;;;;;;;;;;2205763;67;1262;-70
2022/03/10 14:38:13;;;;;;;;;;;;;;;;;;2204927;59;1594;-70
2022/03/10 14:40:46;;;;;;;;;;;;;;;;;;2205546;59;1575;-70
2022/03/10 14:43:19;;;;;;;;;;;;;;;;;;2205836;59;1526;-69
2022/03/10 14:45:56;;;;;;;;;;;;;;;;;;2205380;59;1576;-70
2022/03/10 14:48:29;;;;;;;;;;;;;;;;;;2205813;67;1209;-70
2022/03/10 14:51:02;;;;;;;;;;;;;;;;;;2205428;59;1968;-70
2022/03/10 14:53:35;;;;;;;;;;;;;;;;;;2205321;59;1927;-70
2022/03/10 14:56:09;;;;;;;;;;;;;;;;;;2204602;59;1717;-70
2022/03/10 14:58:45;;;;;;;;;;;;;;;;;;2205644;59;1114;-70
2022/03/10 15:01:21;;;;;;;;;;;;;;;;;;2205812;67;1214;-70
2022/03/10 15:03:54;;;;;;;;;;;;;;;;;;2205017;59;1573;-70
2022/03/10 15:06:28;;;;;;;;;;;;;;;;;;2205781;59;1755;-70
2022/03/10 15:09:02;;;;;;;;;;;;;;;;;;2206653;67;1132;-70
2022/03/10 15:11:35;;;;;;;;;;;;;;;;;;2206153;59;2006;-70
2022/03/10 15:14:08;;;;;;;;;;;;;;;;;;2206269;67;1211;-69
2022/03/10 15:16:45;;;;;;;;;;;;;;;;;;2205600;67;1124;-70
2022/03/10 15:19:18;;;;;;;;;;;;;;;;;;2205088;59;1237;-70
2022/03/10 15:21:51;;;;;;;;;;;;;;;;;;2205745;67;1120;-70
2022/03/10 15:24:24;;;;;;;;;;;;;;;;;;2205588;59;2066;-70
2022/03/10 15:26:57;;;;;;;;;;;;;;;;;;2207363;59;1106;-70
2022/03/10 15:29:33;;;;;;;;;;;;;;;;;;2205112;67;1137;-70
2022/03/10 15:32:09;;;;;;;;;;;;;;;;;;2205913;67;1930;-70
2022/03/10 15:34:43;;;;;;;;;;;;;;;;;;2205192;59;1898;-70
2022/03/10 15:37:16;;;;;;;;;;;;;;;;;;2206041;67;1260;-70
2022/03/10 15:39:49;;;;;;;;;;;;;;;;;;2206605;67;1110;-70
2022/03/10 15:42:22;;;;;;;;;;;;;;;;;;2205586;67;1271;-70
2022/03/10 15:44:57;;;;;;;;;;;;;;;;;;2206112;59;1922;-70
2022/03/10 15:47:33;;;;;;;;;;;;;;;;;;2205714;59;1273;-70
2022/03/10 15:50:07;;;;;;;;;;;;;;;;;;2206566;59;1099;-70
2022/03/10 15:52:40;;;;;;;;;;;;;;;;;;2204215;59;1951;-70
2022/03/10 15:55:14;;;;;;;;;;;;;;;;;;2205326;59;2107;-69
2022/03/10 15:57:47;;;;;;;;;;;;;;;;;;2206311;67;1113;-70
2022/03/10 16:00:21;;;;;;;;;;;;;;;;;;2204964;67;1189;-70
2022/03/10 16:02:57;;;;;;;;;;;;;;;;;;2206264;67;1145;-70
2022/03/10 16:05:31;;;;;;;;;;;;;;;;;;2207044;59;1634;-70
2022/03/10 16:08:04;;;;;;;;;;;;;;;;;;2205875;67;1169;-70
2022/03/10 16:10:37;;;;;;;;;;;;;;;;;;2206659;67;1117;-69
2022/03/10 16:13:10;;;;;;;;;;;;;;;;;;2201167;67;1928;-70
2022/03/10 16:15:46;;;;;;;;;;;;;;;;;;2206346;67;1336;-69
2022/03/10 16:18:23;;;;;;;;;;;;;;;;;;2205921;67;1241;-70
2022/03/10 16:20:56;;;;;;;;;;;;;;;;;;2205752;67;1229;-69
2022/03/10 16:23:30;;;;;;;;;;;;;;;;;;2207038;59;1975;-69
2022/03/10 16:26:03;;;;;;;;;;;;;;;;;;2202112;59;2228;-69
2022/03/10 16:28:36;;;;;;;;;;;;;;;;;;2207498;67;1143;-69
2022/03/10 16:31:09;;;;;;;;;;;;;;;;;;2207287;67;1971;-70
2022/03/10 16:33:45;;;;;;;;;;;;;;;;;;2205646;67;1091;-70
2022/03/10 16:36:20;;;;;;;;;;;;;;;;;;2206191;59;1249;-69
2022/03/10 16:38:53;;;;;;;;;;;;;;;;;;2206178;59;1673;-70
2022/03/10 16:41:27;;;;;;;;;;;;;;;;;;2206644;67;1336;-69
2022/03/10 16:44:03;;;;;;;;;;;;;;;;;;2207203;59;1282;-70
2022/03/10 16:46:36;;;;;;;;;;;;;;;;;;2207872;59;1913;-69
2022/03/10 16:49:12;;;;;;;;;;;;;;;;;;2206195;67;1225;-69
2022/03/10 16:51:45;;;;;;;;;;;;;;;;;;2207499;67;1987;-69
2022/03/10 16:54:19;;;;;;;;;;;;;;;;;;2207449;59;2121;-70
2022/03/10 16:56:52;;;;;;;;;;;;;;;;;;2207420;67;1137;-69
2022/03/10 16:59:26;;;;;;;;;;;;;;;;;;2206395;59;1165;-69
2022/03/10 17:02:00;;;;;;;;;;;;;;;;;;2205405;67;1082;-70
2022/03/10 17:04:38;;;;;;;;;;;;;;;;;;2207660;53;3577;-69
2022/03/10 17:07:12;;;;;;;;;;;;;;;;;;2205150;59;1705;-69
2022/03/10 17:09:46;;;;;;;;;;;;;;;;;;2207542;59;1145;-68
2022/03/10 17:12:19;;;;;;;;;;;;;;;;;;2209133;67;1987;-69
2022/03/10 17:14:52;;;;;;;;;;;;;;;;;;2207482;59;1223;-69
2022/03/10 17:17:25;;;;;;;;;;;;;;;;;;2203149;59;1236;-69
2022/03/10 17:20:01;;;;;;;;;;;;;;;;;;2202655;59;1271;-69
2022/03/10 17:22:34;;;;;;;;;;;;;;;;;;2203326;59;1128;-69
2022/03/10 17:25:08;;;;;;;;;;;;;;;;;;2203634;59;2058;-69
2022/03/10 17:27:41;;;;;;;;;;;;;;;;;;2204416;59;1199;-69
2022/03/10 17:30:15;;;;;;;;;;;;;;;;;;2200877;67;1243;-68
2022/03/10 17:32:48;;;;;;;;;;;;;;;;;;2204145;67;1924;-68
2022/03/10 17:35:24;;;;;;;;;;;;;;;;;;2204414;59;1175;-69
2022/03/10 17:37:57;;;;;;;;;;;;;;;;;;2204492;59;1220;-69
2022/03/10 17:40:30;;;;;;;;;;;;;;;;;;2204045;59;1250;-69
2022/03/10 17:43:04;;;;;;;;;;;;;;;;;;2201516;60;1531;-69
2022/03/10 17:45:37;;;;;;;;;;;;;;;;;;2200799;59;1804;-69
2022/03/10 17:48:11;;;;;;;;;;;;;;;;;;2203746;67;1339;-69
2022/03/10 17:50:47;;;;;;;;;;;;;;;;;;2204201;67;1078;-69
2022/03/10 17:53:20;;;;;;;;;;;;;;;;;;2204572;59;1953;-69
2022/03/10 17:55:53;;;;;;;;;;;;;;;;;;2204403;67;1219;-69
2022/03/10 17:58:27;;;;;;;;;;;;;;;;;;2205236;67;1258;-69